createdAt,value
2023-10-26T00:01:37.357Z,15.43
2023-10-26T00:04:07.888Z,15.39
2023-10-26T00:06:38.182Z,15.36
2023-10-26T00:09:11.100Z,15.33
2023-10-26T00:11:41.299Z,15.25
2023-10-26T00:14:11.560Z,15.22
2023-10-26T00:16:41.794Z,15.19
2023-10-26T00:19:12.173Z,15.15
2023-10-26T00:21:42.699Z,15.14
2023-10-26T00:24:15.695Z,15.14
2023-10-26T00:26:46.011Z,15.13
2023-10-26T00:29:16.284Z,15.10
2023-10-26T00:31:46.673Z,15.06
2023-10-26T00:34:16.825Z,15.03
2023-10-26T00:36:47.166Z,15.03
2023-10-26T00:39:20.101Z,15.02
2023-10-26T00:41:50.319Z,15.02
2023-10-26T00:44:20.613Z,15.01
2023-10-26T00:46:51.238Z,15.00
2023-10-26T00:49:23.073Z,14.96
2023-10-26T00:51:55.418Z,14.94
2023-10-26T00:54:30.733Z,14.92
2023-10-26T00:57:01.409Z,14.90
2023-10-26T00:59:32.164Z,14.88
2023-10-26T01:02:04.944Z,14.88
2023-10-26T01:04:35.241Z,14.88
2023-10-26T01:07:05.596Z,14.87
2023-10-26T01:09:38.659Z,14.87
2023-10-26T01:12:09.604Z,14.86
2023-10-26T01:14:40.740Z,14.85
2023-10-26T01:17:11.246Z,14.81
2023-10-26T01:19:42.504Z,14.76
2023-10-26T01:22:15.436Z,14.72
2023-10-26T01:24:45.827Z,14.69
2023-10-26T01:27:16.230Z,14.69
2023-10-26T01:29:46.441Z,14.66
2023-10-26T01:32:17.918Z,14.65
2023-10-26T01:34:48.257Z,14.63
2023-10-26T01:37:21.245Z,14.61
2023-10-26T01:39:51.465Z,14.60
2023-10-26T01:42:21.761Z,14.60
2023-10-26T01:44:52.310Z,14.60
2023-10-26T01:47:22.678Z,14.60
2023-10-26T01:49:53.076Z,14.60
2023-10-26T01:52:25.989Z,14.59
2023-10-26T01:54:56.323Z,14.59
2023-10-26T01:57:26.657Z,14.58
2023-10-26T01:59:57.417Z,14.55
2023-10-26T02:02:28.564Z,14.50
2023-10-26T02:04:59.108Z,14.47
2023-10-26T02:07:31.982Z,14.44
2023-10-26T02:10:02.620Z,14.44
2023-10-26T02:12:33.674Z,14.43
2023-10-26T02:15:03.916Z,14.43
2023-10-26T02:17:34.649Z,14.44
2023-10-26T02:20:05.093Z,14.43
2023-10-26T02:22:38.088Z,14.43
2023-10-26T02:25:08.840Z,14.44
2023-10-26T02:27:39.295Z,14.43
2023-10-26T02:30:10.494Z,14.41
2023-10-26T02:32:40.987Z,14.40
2023-10-26T02:35:11.988Z,14.38
2023-10-26T02:37:45.039Z,14.36
2023-10-26T02:40:15.406Z,14.33
2023-10-26T02:42:45.640Z,14.30
2023-10-26T02:45:17.060Z,14.27
2023-10-26T02:47:47.405Z,14.25
2023-10-26T02:50:17.753Z,14.24
2023-10-26T02:52:54.752Z,14.21
2023-10-26T02:55:24.995Z,14.20
2023-10-26T02:57:55.251Z,14.18
2023-10-26T03:00:26.065Z,14.17
2023-10-26T03:02:56.394Z,14.16
2023-10-26T03:05:26.783Z,14.14
2023-10-26T03:07:59.728Z,14.12
2023-10-26T03:10:30.273Z,14.11
2023-10-26T03:13:00.581Z,14.09
2023-10-26T03:15:30.883Z,14.08
2023-10-26T03:18:01.295Z,14.07
2023-10-26T03:20:31.595Z,14.07
2023-10-26T03:23:04.426Z,14.05
2023-10-26T03:25:34.713Z,14.04
2023-10-26T03:28:08.168Z,14.03
2023-10-26T03:30:38.707Z,14.02
2023-10-26T03:33:09.026Z,13.97
2023-10-26T03:35:39.701Z,13.95
2023-10-26T03:38:12.570Z,13.93
2023-10-26T03:40:42.752Z,13.89
2023-10-26T03:43:13.956Z,13.84
2023-10-26T03:45:44.718Z,13.82
2023-10-26T03:48:15.082Z,13.79
2023-10-26T03:50:46.183Z,13.75
2023-10-26T03:53:19.104Z,13.73
2023-10-26T03:55:49.330Z,13.72
2023-10-26T03:58:19.646Z,13.71
2023-10-26T04:00:50.221Z,13.70
2023-10-26T04:03:20.631Z,13.69
2023-10-26T04:05:51.082Z,13.69
2023-10-26T04:08:23.937Z,13.68
2023-10-26T04:10:54.190Z,13.67
2023-10-26T04:13:24.374Z,13.66
2023-10-26T04:16:02.566Z,13.65
2023-10-26T04:18:33.236Z,13.65
2023-10-26T04:21:03.617Z,13.63
2023-10-26T04:23:36.537Z,13.62
2023-10-26T04:26:06.917Z,13.59
2023-10-26T04:28:47.835Z,13.58
2023-10-26T04:31:22.134Z,13.55
2023-10-26T04:33:52.746Z,13.51
2023-10-26T04:36:23.475Z,13.49
2023-10-26T04:38:56.360Z,13.46
2023-10-26T04:41:28.658Z,13.44
2023-10-26T04:43:58.908Z,13.43
2023-10-26T04:46:29.197Z,13.43
2023-10-26T04:48:59.505Z,13.44
2023-10-26T04:51:30.435Z,13.46
2023-10-26T04:54:03.339Z,13.45
2023-10-26T04:56:33.585Z,13.46
2023-10-26T04:59:03.898Z,13.47
2023-10-26T05:01:34.326Z,13.47
2023-10-26T05:04:04.543Z,13.49
2023-10-26T05:06:36.202Z,13.46
2023-10-26T05:09:09.337Z,13.49
2023-10-26T05:11:39.682Z,13.50
2023-10-26T05:14:10.576Z,13.52
2023-10-26T05:16:41.053Z,13.56
2023-10-26T05:19:13.430Z,13.57
2023-10-26T05:21:43.711Z,13.61
2023-10-26T05:24:16.832Z,13.63
2023-10-26T05:26:47.094Z,13.67
2023-10-26T05:29:17.375Z,13.69
2023-10-26T05:31:47.770Z,13.71
2023-10-26T05:34:18.054Z,13.74
2023-10-26T05:36:48.288Z,13.75
2023-10-26T05:39:21.123Z,13.79
2023-10-26T05:41:48.812Z,13.80
2023-10-26T05:44:19.108Z,13.81
2023-10-26T05:46:49.292Z,13.85
2023-10-26T05:49:19.436Z,13.87
2023-10-26T05:51:49.554Z,13.90
2023-10-26T05:54:22.486Z,13.92
2023-10-26T05:56:52.722Z,13.95
2023-10-26T05:59:22.888Z,14.00
2023-10-26T06:01:53.128Z,14.05
2023-10-26T06:04:23.356Z,14.10
2023-10-26T06:06:53.546Z,14.16
2023-10-26T06:09:26.396Z,14.21
2023-10-26T06:11:56.577Z,14.27
2023-10-26T06:14:27.010Z,14.33
2023-10-26T06:16:57.144Z,14.37
2023-10-26T06:19:27.426Z,14.39
2023-10-26T06:21:57.818Z,14.43
2023-10-26T06:24:30.703Z,14.45
2023-10-26T06:27:01.099Z,14.48
2023-10-26T06:29:31.328Z,14.49
2023-10-26T06:32:01.562Z,14.50
2023-10-26T06:34:32.173Z,14.50
2023-10-26T06:37:02.316Z,14.50
2023-10-26T06:39:35.115Z,14.50
2023-10-26T06:42:05.365Z,14.50
2023-10-26T06:44:35.621Z,14.52
2023-10-26T06:47:06.226Z,14.54
2023-10-26T06:49:36.644Z,14.57
2023-10-26T06:52:07.227Z,14.61
2023-10-26T06:54:40.779Z,14.66
2023-10-26T06:57:11.266Z,14.71
2023-10-26T06:59:42.880Z,14.75
2023-10-26T07:02:13.606Z,14.80
2023-10-26T07:04:44.203Z,14.89
2023-10-26T07:07:16.409Z,15.04
2023-10-26T07:09:49.307Z,15.17
2023-10-26T07:12:19.657Z,15.32
2023-10-26T07:14:54.068Z,15.50
2023-10-26T07:17:25.674Z,15.71
2023-10-26T07:19:55.997Z,15.87
2023-10-26T07:22:27.110Z,16.03
2023-10-26T07:25:00.674Z,16.17
2023-10-26T07:27:30.985Z,16.31
2023-10-26T07:30:01.434Z,16.52
2023-10-26T07:32:32.573Z,16.69
2023-10-26T07:35:03.089Z,16.82
2023-10-26T07:37:33.877Z,16.97
2023-10-26T07:40:28.682Z,17.16
2023-10-26T07:42:57.234Z,17.43
2023-10-26T07:45:28.034Z,17.62
2023-10-26T07:48:01.669Z,17.82
2023-10-26T07:50:32.520Z,17.97
2023-10-26T07:53:04.700Z,18.11
2023-10-26T07:55:38.163Z,18.21
2023-10-26T07:58:08.387Z,18.29
2023-10-26T08:00:40.420Z,18.40
2023-10-26T08:03:10.687Z,18.49
2023-10-26T08:05:40.976Z,18.58
2023-10-26T08:08:11.247Z,18.67
2023-10-26T08:10:44.359Z,18.77
2023-10-26T08:13:14.624Z,18.86
2023-10-26T08:16:29.304Z,18.93
2023-10-26T08:18:36.921Z,19.05
2023-10-26T08:21:07.489Z,19.15
2023-10-26T08:23:37.822Z,19.25
2023-10-26T08:26:14.583Z,19.34
2023-10-26T08:28:44.915Z,19.43
2023-10-26T08:31:15.318Z,19.53
2023-10-26T08:33:45.743Z,19.64
2023-10-26T08:36:16.104Z,19.76
2023-10-26T08:38:46.683Z,19.85
2023-10-26T08:41:19.622Z,19.95
2023-10-26T08:43:50.009Z,20.07
2023-10-26T08:46:21.813Z,20.17
2023-10-26T08:48:52.640Z,20.26
2023-10-26T08:51:23.061Z,20.38
2023-10-26T08:53:54.763Z,20.47
2023-10-26T08:56:28.636Z,20.57
2023-10-26T08:58:59.416Z,20.68
2023-10-26T09:01:29.940Z,20.78
2023-10-26T09:04:00.348Z,20.87
2023-10-26T09:06:46.176Z,20.97
2023-10-26T09:09:16.580Z,21.08
2023-10-26T09:11:50.466Z,21.16
2023-10-26T09:14:21.345Z,21.26
2023-10-26T09:16:54.318Z,21.37
2023-10-26T09:19:24.789Z,21.46
2023-10-26T09:21:56.853Z,21.53
2023-10-26T09:24:28.887Z,21.61
2023-10-26T09:27:03.556Z,21.67
2023-10-26T09:29:40.121Z,21.74
2023-10-26T09:32:10.908Z,21.79
2023-10-26T09:34:45.013Z,21.87
2023-10-26T09:37:15.812Z,21.92
2023-10-26T09:39:46.505Z,21.99
2023-10-26T09:42:20.557Z,22.05
2023-10-26T09:44:50.837Z,22.11
2023-10-26T09:47:23.234Z,22.17
2023-10-26T09:49:56.860Z,22.24
2023-10-26T09:52:27.229Z,22.26
2023-10-26T09:54:58.260Z,22.28
2023-10-26T09:57:34.473Z,22.30
2023-10-26T10:00:04.718Z,22.29
2023-10-26T10:02:43.509Z,22.31
2023-10-26T10:05:28.458Z,22.28
2023-10-26T10:07:58.686Z,22.24
2023-10-26T10:10:29.044Z,22.19
2023-10-26T10:13:01.938Z,22.14
2023-10-26T10:15:43.253Z,22.08
2023-10-26T10:18:11.522Z,22.05
2023-10-26T10:20:42.400Z,22.02
2023-10-26T10:23:12.975Z,21.99
2023-10-26T10:26:05.761Z,21.95
2023-10-26T10:28:57.428Z,21.94
2023-10-26T10:31:39.075Z,21.94
2023-10-26T10:34:12.542Z,21.93
2023-10-26T10:36:57.757Z,21.94
2023-10-26T10:39:28.095Z,21.94
2023-10-26T10:41:58.509Z,21.97
2023-10-26T10:44:31.847Z,21.98
2023-10-26T10:47:01.981Z,22.01
2023-10-26T10:49:32.149Z,22.04
2023-10-26T10:52:02.506Z,22.08
2023-10-26T10:54:48.198Z,22.12
2023-10-26T10:57:23.064Z,22.18
2023-10-26T10:59:58.599Z,22.24
2023-10-26T11:02:29.030Z,22.26
2023-10-26T11:05:12.381Z,22.33
2023-10-26T11:07:46.485Z,22.38
2023-10-26T11:10:16.723Z,22.43
2023-10-26T11:12:53.115Z,22.47
2023-10-26T11:15:34.172Z,22.54
2023-10-26T11:18:05.035Z,22.60
2023-10-26T11:20:39.132Z,22.69
2023-10-26T11:23:09.865Z,22.76
2023-10-26T11:25:40.289Z,22.84
2023-10-26T11:28:10.925Z,22.93
2023-10-26T11:30:53.110Z,23.03
2023-10-26T11:33:36.221Z,23.14
2023-10-26T11:36:10.763Z,23.27
2023-10-26T11:38:49.073Z,23.43
2023-10-26T11:41:29.600Z,23.56
2023-10-26T11:44:00.169Z,23.66
2023-10-26T11:46:37.150Z,23.73
2023-10-26T11:49:08.243Z,23.82
2023-10-26T11:51:44.451Z,23.95
2023-10-26T11:54:18.663Z,24.09
2023-10-26T11:56:48.881Z,24.16
2023-10-26T11:59:19.211Z,24.22
2023-10-26T12:01:52.081Z,24.26
2023-10-26T12:04:22.344Z,24.32
2023-10-26T12:06:52.622Z,24.40
2023-10-26T12:09:23.048Z,24.49
2023-10-26T12:11:53.261Z,24.58
2023-10-26T12:14:23.632Z,24.63
2023-10-26T12:16:58.881Z,24.61
2023-10-26T12:19:29.090Z,24.60
2023-10-26T12:21:59.315Z,24.56
2023-10-26T12:24:29.607Z,24.51
2023-10-26T12:26:59.846Z,24.42
2023-10-26T12:29:30.653Z,24.34
2023-10-26T12:32:03.955Z,24.24
2023-10-26T12:34:34.772Z,24.12
2023-10-26T12:37:05.040Z,24.01
2023-10-26T12:39:35.460Z,23.86
2023-10-26T12:42:05.699Z,23.74
2023-10-26T12:44:36.123Z,23.63
2023-10-26T12:47:09.216Z,23.54
2023-10-26T12:49:39.599Z,23.46
2023-10-26T12:52:09.945Z,23.40
2023-10-26T12:54:40.156Z,23.34
2023-10-26T12:57:10.408Z,23.29
2023-10-26T12:59:40.653Z,23.24
2023-10-26T13:02:13.502Z,23.19
2023-10-26T13:04:43.957Z,23.13
2023-10-26T13:07:14.365Z,23.08
2023-10-26T13:09:46.089Z,23.03
2023-10-26T13:12:16.498Z,22.96
2023-10-26T13:14:47.849Z,22.91
2023-10-26T13:17:24.183Z,22.85
2023-10-26T13:19:54.396Z,22.79
2023-10-26T13:22:24.870Z,22.76
2023-10-26T13:24:55.222Z,22.72
2023-10-26T13:27:27.078Z,22.69
2023-10-26T13:30:00.902Z,22.68
2023-10-26T13:32:33.706Z,22.66
2023-10-26T13:35:04.222Z,22.63
2023-10-26T13:37:34.507Z,22.62
2023-10-26T13:40:05.053Z,22.58
2023-10-26T13:42:35.285Z,22.57
2023-10-26T13:45:05.541Z,22.53
2023-10-26T13:47:38.479Z,22.51
2023-10-26T13:50:09.359Z,22.49
2023-10-26T13:52:39.622Z,22.45
2023-10-26T13:55:10.258Z,22.43
2023-10-26T13:57:40.657Z,22.36
2023-10-26T14:00:13.426Z,22.31
2023-10-26T14:02:46.507Z,22.26
2023-10-26T14:05:30.306Z,22.21
2023-10-26T14:08:01.232Z,22.16
2023-10-26T14:10:31.543Z,22.12
2023-10-26T14:13:01.783Z,22.06
2023-10-26T14:15:31.999Z,22.01
2023-10-26T14:18:05.074Z,21.97
2023-10-26T14:20:35.251Z,21.92
2023-10-26T14:23:07.007Z,21.86
2023-10-26T14:25:39.632Z,21.78
2023-10-26T14:28:09.792Z,21.63
2023-10-26T14:30:40.023Z,21.62
2023-10-26T14:33:12.999Z,21.52
2023-10-26T14:35:43.296Z,21.39
2023-10-26T14:38:13.615Z,21.26
2023-10-26T14:40:43.789Z,21.11
2023-10-26T14:43:14.032Z,20.96
2023-10-26T14:45:44.401Z,20.77
2023-10-26T14:48:17.279Z,20.59
2023-10-26T14:50:47.605Z,20.43
2023-10-26T14:53:18.116Z,20.29
2023-10-26T14:55:48.566Z,20.17
2023-10-26T14:58:18.888Z,20.08
2023-10-26T15:00:49.337Z,19.97
2023-10-26T15:03:22.238Z,19.88
2023-10-26T15:05:52.604Z,19.80
2023-10-26T15:08:22.905Z,19.71
2023-10-26T15:10:54.977Z,19.63
2023-10-26T15:13:45.206Z,19.55
2023-10-26T15:16:15.764Z,19.45
2023-10-26T15:18:48.655Z,19.37
2023-10-26T15:21:18.842Z,19.28
2023-10-26T15:23:48.985Z,19.20
2023-10-26T15:26:19.151Z,19.13
2023-10-26T15:28:49.504Z,19.08
2023-10-26T15:31:19.807Z,19.02
2023-10-26T15:33:52.821Z,18.97
2023-10-26T15:36:23.160Z,18.91
2023-10-26T15:38:53.424Z,18.87
2023-10-26T15:41:23.590Z,18.84
2023-10-26T15:43:54.488Z,18.81
2023-10-26T15:46:24.723Z,18.77
2023-10-26T15:49:33.667Z,18.73
2023-10-26T15:51:54.471Z,18.65
2023-10-26T15:54:24.823Z,18.62
2023-10-26T15:56:55.024Z,18.54
2023-10-26T15:59:27.085Z,18.48
2023-10-26T16:01:57.372Z,18.43
2023-10-26T16:04:31.153Z,18.42
2023-10-26T16:07:01.396Z,18.39
2023-10-26T16:09:34.200Z,18.39
2023-10-26T16:12:06.461Z,18.36
2023-10-26T16:14:36.644Z,18.35
2023-10-26T16:17:07.069Z,18.33
2023-10-26T16:19:39.940Z,18.31
2023-10-26T16:22:10.430Z,18.29
2023-10-26T16:24:41.181Z,18.26
2023-10-26T16:27:11.444Z,18.22
2023-10-26T16:29:41.846Z,18.20
2023-10-26T16:32:12.210Z,18.17
2023-10-26T16:34:45.861Z,18.16
2023-10-26T16:37:16.108Z,18.14
2023-10-26T16:39:46.540Z,18.09
2023-10-26T16:42:16.902Z,18.05
2023-10-26T16:44:47.542Z,18.00
2023-10-26T16:47:17.921Z,17.97
2023-10-26T16:49:50.738Z,17.94
2023-10-26T16:52:21.148Z,17.90
2023-10-26T16:54:51.555Z,17.87
2023-10-26T17:00:24.364Z,17.78
2023-10-26T17:02:55.888Z,17.73
2023-10-26T17:05:29.410Z,17.70
2023-10-26T17:08:02.368Z,17.64
2023-10-26T17:10:33.395Z,17.59
2023-10-26T17:13:06.082Z,17.55
2023-10-26T17:15:37.105Z,17.50
2023-10-26T17:18:07.857Z,17.46
2023-10-26T17:20:41.232Z,17.41
2023-10-26T17:23:12.022Z,17.37
2023-10-26T17:25:43.201Z,17.30
2023-10-26T17:28:14.549Z,17.24
2023-10-26T17:30:45.202Z,17.21
2023-10-26T17:33:17.527Z,17.18
2023-10-26T17:35:54.204Z,17.15
2023-10-26T17:38:25.130Z,17.10
2023-10-26T17:40:55.619Z,17.06
2023-10-26T17:43:26.115Z,17.03
2023-10-26T17:45:57.732Z,17.01
2023-10-26T17:48:29.294Z,16.96
2023-10-26T17:51:05.266Z,16.90
2023-10-26T17:53:36.019Z,16.82
2023-10-26T17:56:09.167Z,16.77
2023-10-26T17:58:39.741Z,16.72
2023-10-26T18:01:11.547Z,16.68
2023-10-26T18:03:42.684Z,16.64
2023-10-26T18:06:16.989Z,16.60
2023-10-26T18:08:47.461Z,16.57
2023-10-26T18:11:18.108Z,16.54
2023-10-26T18:13:48.631Z,16.53
2023-10-26T18:16:19.749Z,16.51
2023-10-26T18:18:50.806Z,16.49
2023-10-26T18:21:24.612Z,16.48
2023-10-26T18:23:56.420Z,16.46
2023-10-26T18:26:27.264Z,16.43
2023-10-26T18:28:58.424Z,16.40
2023-10-26T18:31:29.137Z,16.34
2023-10-26T18:34:00.423Z,16.32
2023-10-26T18:36:36.719Z,16.27
2023-10-26T18:39:08.034Z,16.24
2023-10-26T18:41:39.805Z,16.21
2023-10-26T18:44:10.894Z,16.18
2023-10-26T18:46:41.680Z,16.13
2023-10-26T18:49:12.640Z,16.10
2023-10-26T18:51:46.185Z,16.05
2023-10-26T18:54:18.506Z,16.02
2023-10-26T18:56:49.453Z,16.02
2023-10-26T18:59:21.151Z,15.99
2023-10-26T19:01:52.226Z,15.98
2023-10-26T19:04:23.969Z,15.97
2023-10-26T19:06:58.568Z,15.95
2023-10-26T19:09:31.437Z,15.92
2023-10-26T19:12:02.562Z,15.90
2023-10-26T19:14:33.629Z,15.89
2023-10-26T19:17:05.103Z,15.84
2023-10-26T19:19:35.671Z,15.81
2023-10-26T19:22:09.013Z,15.78
2023-10-26T19:24:39.755Z,15.75
2023-10-26T19:27:10.671Z,15.71
2023-10-26T19:29:42.104Z,15.65
2023-10-26T19:32:12.665Z,15.61
2023-10-26T19:34:45.890Z,15.55
2023-10-26T19:37:21.845Z,15.50
2023-10-26T19:39:53.620Z,15.44
2023-10-26T19:45:15.734Z,15.37
2023-10-26T19:47:47.018Z,15.32
2023-10-26T19:50:19.199Z,15.30
2023-10-26T19:52:52.625Z,15.28
2023-10-26T19:55:23.901Z,15.27
2023-10-26T19:57:54.891Z,15.24
2023-10-26T20:00:26.594Z,15.23
2023-10-26T20:02:57.579Z,15.17
2023-10-26T20:05:28.713Z,15.13
2023-10-26T20:08:03.774Z,15.07
2023-10-26T20:10:34.387Z,15.00
2023-10-26T20:13:05.001Z,14.95
2023-10-26T20:15:35.987Z,14.89
2023-10-26T20:18:09.161Z,14.84
2023-10-26T20:20:39.641Z,14.78
2023-10-26T20:23:13.039Z,14.74
2023-10-26T20:25:45.075Z,14.70
2023-10-26T20:28:17.517Z,14.97
2023-10-26T20:30:48.261Z,15.61
2023-10-26T20:33:19.522Z,16.48
2023-10-26T20:35:52.830Z,17.31
2023-10-26T20:38:26.319Z,17.94
2023-10-26T20:40:58.334Z,18.38
2023-10-26T20:43:29.008Z,18.64
2023-10-26T20:46:01.791Z,18.78
2023-10-26T20:48:32.583Z,18.57
2023-10-26T20:51:09.517Z,18.24
2023-10-26T20:53:43.245Z,17.88
2023-10-26T20:56:14.355Z,17.55
2023-10-26T20:58:57.081Z,17.23
2023-10-26T21:05:03.699Z,16.56
2023-10-26T21:11:34.709Z,15.94
2023-10-26T21:25:02.286Z,15.07
2023-10-26T21:27:54.401Z,14.91
2023-10-26T21:30:26.683Z,14.81
2023-10-26T21:32:57.204Z,14.73
2023-10-26T21:35:28.597Z,14.64
2023-10-26T21:37:58.962Z,14.57
2023-10-26T21:40:29.246Z,14.48
2023-10-26T21:43:02.242Z,14.39
2023-10-26T21:45:32.575Z,14.31
2023-10-26T21:48:03.042Z,14.24
2023-10-26T21:50:35.207Z,14.19
2023-10-26T21:53:15.234Z,14.12
2023-10-26T21:55:47.261Z,14.07
2023-10-26T21:58:20.410Z,14.04
2023-10-26T22:00:54.655Z,13.98
2023-10-26T22:03:25.702Z,13.95
2023-10-26T22:05:56.179Z,13.91
2023-10-26T22:08:26.647Z,13.89
2023-10-26T22:10:57.518Z,13.86
2023-10-26T22:13:30.755Z,13.83
2023-10-26T22:16:01.535Z,13.82
2023-10-26T22:18:32.033Z,13.78
2023-10-26T22:21:04.498Z,13.74
2023-10-26T22:23:34.887Z,13.73
2023-10-26T22:26:05.537Z,13.70
2023-10-26T22:28:38.779Z,13.68
2023-10-26T22:31:09.916Z,13.67
2023-10-26T22:33:40.568Z,13.66
2023-10-26T22:36:11.639Z,13.64
2023-10-26T22:38:42.072Z,13.61
2023-10-26T22:41:12.679Z,13.58
2023-10-26T22:43:45.777Z,13.55
2023-10-26T22:46:16.142Z,13.51
2023-10-26T22:48:46.456Z,13.47
2023-10-26T22:51:16.896Z,13.44
2023-10-26T22:53:47.361Z,13.41
2023-10-26T22:56:21.456Z,13.40
2023-10-26T22:58:54.774Z,13.41
2023-10-26T23:01:25.081Z,13.42
2023-10-26T23:03:55.527Z,13.43
2023-10-26T23:06:29.837Z,13.44
2023-10-26T23:09:04.884Z,13.45
2023-10-26T23:11:35.464Z,13.47
2023-10-26T23:14:08.726Z,13.48
2023-10-26T23:16:39.781Z,13.49
2023-10-26T23:19:10.306Z,13.50
2023-10-26T23:21:40.715Z,13.46
2023-10-26T23:24:11.266Z,13.44
2023-10-26T23:26:42.235Z,13.43
2023-10-26T23:29:15.115Z,13.40
2023-10-26T23:31:45.502Z,13.38
2023-10-26T23:34:16.159Z,13.37
2023-10-26T23:36:46.742Z,13.35
2023-10-26T23:39:17.225Z,13.34
2023-10-26T23:41:47.596Z,13.32
2023-10-26T23:44:20.795Z,13.31
2023-10-26T23:46:51.119Z,13.30
2023-10-26T23:49:21.519Z,13.28
2023-10-26T23:51:51.879Z,13.27
2023-10-26T23:54:22.982Z,13.27
2023-10-26T23:56:53.255Z,13.26
2023-10-26T23:59:26.348Z,13.24
